createdAt,value
2023-01-29T00:01:52.824Z,52.36
2023-01-29T00:04:19.483Z,52.24
2023-01-29T00:06:46.139Z,51.98
2023-01-29T00:09:12.872Z,50.99
2023-01-29T00:11:39.693Z,51.00
2023-01-29T00:14:06.408Z,51.55
2023-01-29T00:16:33.073Z,51.65
2023-01-29T00:19:01.275Z,51.32
2023-01-29T00:21:27.945Z,51.72
2023-01-29T00:23:54.610Z,51.27
2023-01-29T00:26:21.266Z,51.61
2023-01-29T00:28:47.973Z,52.01
2023-01-29T00:31:17.177Z,52.36
2023-01-29T00:33:43.871Z,52.53
2023-01-29T00:36:11.929Z,52.47
2023-01-29T00:38:38.702Z,52.18
2023-01-29T00:41:09.165Z,51.78
2023-01-29T00:43:35.803Z,51.96
2023-01-29T00:46:02.445Z,51.39
2023-01-29T00:48:29.097Z,51.37
2023-01-29T00:50:55.743Z,51.68
2023-01-29T00:53:22.420Z,51.77
2023-01-29T00:55:49.107Z,51.92
2023-01-29T00:58:15.783Z,51.83
2023-01-29T01:00:42.436Z,52.38
2023-01-29T01:03:10.208Z,51.72
2023-01-29T01:05:36.941Z,51.28
2023-01-29T01:08:03.902Z,51.35
2023-01-29T01:10:32.164Z,52.22
2023-01-29T01:13:03.793Z,52.01
2023-01-29T01:15:31.957Z,51.37
2023-01-29T01:17:59.308Z,52.04
2023-01-29T01:20:26.728Z,52.34
2023-01-29T01:22:53.716Z,52.27
2023-01-29T01:25:20.891Z,51.50
2023-01-29T01:27:47.604Z,51.22
2023-01-29T01:30:15.410Z,50.48
2023-01-29T01:32:42.389Z,50.85
2023-01-29T01:35:10.041Z,50.76
2023-01-29T01:37:36.692Z,50.90
2023-01-29T01:40:08.969Z,51.09
2023-01-29T01:42:35.609Z,51.26
2023-01-29T01:45:04.012Z,50.84
2023-01-29T01:47:34.722Z,50.71
2023-01-29T01:50:09.775Z,51.94
2023-01-29T01:52:37.462Z,51.57
2023-01-29T01:55:04.450Z,51.62
2023-01-29T01:57:31.120Z,51.25
2023-01-29T02:00:07.883Z,51.63
2023-01-29T02:02:34.543Z,51.66
2023-01-29T02:05:01.206Z,51.56
2023-01-29T02:07:27.841Z,51.44
2023-01-29T02:10:15.865Z,51.36
2023-01-29T02:12:43.186Z,51.87
2023-01-29T02:15:10.132Z,52.05
2023-01-29T02:17:36.957Z,52.04
2023-01-29T02:20:20.513Z,52.07
2023-01-29T02:22:49.832Z,51.97
2023-01-29T02:25:40.878Z,52.08
2023-01-29T02:28:31.019Z,52.18
2023-01-29T02:31:09.718Z,52.70
2023-01-29T02:33:55.518Z,52.83
2023-01-29T02:36:24.835Z,52.50
2023-01-29T02:39:17.702Z,51.62
2023-01-29T02:42:13.239Z,51.75
2023-01-29T02:44:47.457Z,51.64
2023-01-29T02:47:37.658Z,51.16
2023-01-29T02:50:11.572Z,50.89
2023-01-29T02:52:44.942Z,50.74
2023-01-29T02:55:18.305Z,51.13
2023-01-29T02:57:46.091Z,51.14
2023-01-29T03:00:21.081Z,51.48
2023-01-29T03:02:58.460Z,51.52
2023-01-29T03:05:45.897Z,52.04
2023-01-29T03:08:15.513Z,51.54
2023-01-29T03:10:53.952Z,51.53
2023-01-29T03:13:38.679Z,51.39
2023-01-29T03:16:28.072Z,51.45
2023-01-29T03:19:01.822Z,51.19
2023-01-29T03:21:30.964Z,51.98
2023-01-29T03:23:57.957Z,51.58
2023-01-29T03:26:24.610Z,51.63
2023-01-29T03:28:51.295Z,50.96
2023-01-29T03:31:18.811Z,50.63
2023-01-29T03:33:50.870Z,50.40
2023-01-29T03:36:42.741Z,50.05
2023-01-29T03:39:09.392Z,49.76
2023-01-29T03:41:53.755Z,50.25
2023-01-29T03:44:26.689Z,49.59
2023-01-29T03:47:20.145Z,49.59
2023-01-29T03:50:07.233Z,49.41
2023-01-29T03:53:09.662Z,49.39
2023-01-29T03:55:48.523Z,49.13
2023-01-29T03:58:23.976Z,49.99
2023-01-29T04:01:09.822Z,49.47
2023-01-29T04:03:41.808Z,49.57
2023-01-29T04:06:20.586Z,49.99
2023-01-29T04:09:02.465Z,49.98
2023-01-29T04:11:30.509Z,49.79
2023-01-29T04:13:57.293Z,49.68
2023-01-29T04:16:38.993Z,49.47
2023-01-29T04:19:05.935Z,49.29
2023-01-29T04:21:32.682Z,49.62
2023-01-29T04:23:59.423Z,49.26
2023-01-29T04:26:38.229Z,50.06
2023-01-29T04:29:16.796Z,49.90
2023-01-29T04:32:04.342Z,50.06
2023-01-29T04:34:41.874Z,49.37
2023-01-29T04:37:26.406Z,49.21
2023-01-29T04:39:58.799Z,49.47
2023-01-29T04:42:31.328Z,49.24
2023-01-29T04:45:10.117Z,48.75
2023-01-29T04:47:37.940Z,49.87
2023-01-29T04:50:14.062Z,49.58
2023-01-29T04:52:58.106Z,49.60
2023-01-29T04:55:27.225Z,49.70
2023-01-29T04:57:59.897Z,50.22
2023-01-29T05:00:37.714Z,49.75
2023-01-29T05:03:04.492Z,49.40
2023-01-29T05:05:31.284Z,48.67
2023-01-29T05:07:58.014Z,49.14
2023-01-29T05:10:24.867Z,48.95
2023-01-29T05:13:01.635Z,48.68
2023-01-29T05:15:34.039Z,48.52
2023-01-29T05:18:00.706Z,47.98
2023-01-29T05:20:27.515Z,47.89
2023-01-29T05:22:54.236Z,48.70
2023-01-29T05:25:23.359Z,48.57
2023-01-29T05:27:50.698Z,48.76
2023-01-29T05:30:17.664Z,48.79
2023-01-29T05:32:44.599Z,48.34
2023-01-29T05:35:11.282Z,48.66
2023-01-29T05:37:37.956Z,48.51
2023-01-29T05:40:04.918Z,48.32
2023-01-29T05:42:32.512Z,48.66
2023-01-29T05:44:59.232Z,48.95
2023-01-29T05:47:25.857Z,48.94
2023-01-29T05:49:52.508Z,48.71
2023-01-29T05:52:19.163Z,48.72
2023-01-29T05:54:46.825Z,48.51
2023-01-29T05:57:14.648Z,48.54
2023-01-29T05:59:41.293Z,48.69
2023-01-29T06:02:07.976Z,48.96
2023-01-29T06:04:34.628Z,48.25
2023-01-29T06:07:01.294Z,47.90
2023-01-29T06:09:27.904Z,47.63
2023-01-29T06:11:54.678Z,47.91
2023-01-29T06:14:21.394Z,47.79
2023-01-29T06:16:48.030Z,48.36
2023-01-29T06:19:14.679Z,47.98
2023-01-29T06:21:41.364Z,48.17
2023-01-29T06:24:08.664Z,48.11
2023-01-29T06:26:35.317Z,48.06
2023-01-29T06:29:02.224Z,48.15
2023-01-29T06:31:38.250Z,47.94
2023-01-29T06:34:11.296Z,48.10
2023-01-29T06:36:38.189Z,47.84
2023-01-29T06:39:04.854Z,47.74
2023-01-29T06:41:31.512Z,47.71
2023-01-29T06:43:58.245Z,47.69
2023-01-29T06:46:24.989Z,47.21
2023-01-29T06:48:51.717Z,47.52
2023-01-29T06:51:18.608Z,47.58
2023-01-29T06:53:46.432Z,47.23
2023-01-29T06:56:13.295Z,47.24
2023-01-29T06:58:40.681Z,47.48
2023-01-29T07:01:08.437Z,47.89
2023-01-29T07:03:35.163Z,47.63
2023-01-29T07:06:01.804Z,47.25
2023-01-29T07:08:28.417Z,47.43
2023-01-29T07:11:01.697Z,48.01
2023-01-29T07:13:28.536Z,47.64
2023-01-29T07:15:58.460Z,48.06
2023-01-29T07:18:25.117Z,47.26
2023-01-29T07:20:51.986Z,48.13
2023-01-29T07:23:18.706Z,47.80
2023-01-29T07:25:45.422Z,46.93
2023-01-29T07:28:12.129Z,47.38
2023-01-29T07:30:38.809Z,47.81
2023-01-29T07:33:07.617Z,46.77
2023-01-29T07:35:41.239Z,46.51
2023-01-29T07:38:10.987Z,46.02
2023-01-29T07:40:37.692Z,46.08
2023-01-29T07:43:05.657Z,45.90
2023-01-29T07:45:34.075Z,45.64
2023-01-29T07:48:00.740Z,45.85
2023-01-29T07:50:27.471Z,45.31
2023-01-29T07:52:54.464Z,45.22
2023-01-29T07:55:21.139Z,45.18
2023-01-29T07:57:47.793Z,45.65
2023-01-29T08:00:15.066Z,45.19
2023-01-29T08:02:42.068Z,44.92
2023-01-29T08:05:08.916Z,44.97
2023-01-29T08:07:35.523Z,45.52
2023-01-29T08:10:02.182Z,46.13
2023-01-29T08:12:28.832Z,46.10
2023-01-29T08:14:55.918Z,46.15
2023-01-29T08:17:22.544Z,46.73
2023-01-29T08:19:49.150Z,46.25
2023-01-29T08:22:16.082Z,46.24
2023-01-29T08:24:53.813Z,46.36
2023-01-29T08:27:26.712Z,46.95
2023-01-29T08:29:53.508Z,46.62
2023-01-29T08:32:20.104Z,47.52
2023-01-29T08:34:46.940Z,47.03
2023-01-29T08:37:13.958Z,46.95
2023-01-29T08:42:12.223Z,47.01
2023-01-29T08:44:38.843Z,46.47
2023-01-29T08:47:05.482Z,46.37
2023-01-29T08:49:32.188Z,45.24
2023-01-29T08:51:58.840Z,45.36
2023-01-29T08:54:25.445Z,45.31
2023-01-29T08:56:52.160Z,45.16
2023-01-29T08:59:18.812Z,45.31
2023-01-29T09:01:45.496Z,45.21
2023-01-29T09:04:12.125Z,44.88
2023-01-29T09:06:38.746Z,44.68
2023-01-29T09:09:05.425Z,44.40
2023-01-29T09:11:32.100Z,43.77
2023-01-29T09:13:59.095Z,43.97
2023-01-29T09:16:26.013Z,43.57
2023-01-29T09:18:53.207Z,44.24
2023-01-29T09:21:19.873Z,43.87
2023-01-29T09:23:48.278Z,43.55
2023-01-29T09:26:14.950Z,43.63
2023-01-29T09:28:41.564Z,43.76
2023-01-29T09:31:08.310Z,43.67
2023-01-29T09:33:34.983Z,43.39
2023-01-29T09:36:04.291Z,43.07
2023-01-29T09:38:32.380Z,42.85
2023-01-29T09:41:31.217Z,42.90
2023-01-29T09:44:02.469Z,42.72
2023-01-29T09:46:46.317Z,41.80
2023-01-29T09:49:24.226Z,43.85
2023-01-29T09:51:58.652Z,42.11
2023-01-29T09:54:28.206Z,42.76
2023-01-29T09:56:55.850Z,42.31
2023-01-29T09:59:27.935Z,42.43
2023-01-29T10:02:34.275Z,43.10
2023-01-29T10:05:08.954Z,42.79
2023-01-29T10:07:46.246Z,42.85
2023-01-29T10:10:34.158Z,42.94
2023-01-29T10:13:11.357Z,42.96
2023-01-29T10:15:44.292Z,42.93
2023-01-29T10:18:28.260Z,42.57
2023-01-29T10:21:21.364Z,42.48
2023-01-29T10:23:50.255Z,42.15
2023-01-29T10:26:16.964Z,42.61
2023-01-29T10:28:46.414Z,42.73
2023-01-29T10:31:15.252Z,42.79
2023-01-29T10:33:49.130Z,42.33
2023-01-29T10:36:28.787Z,42.03
2023-01-29T10:38:55.691Z,41.84
2023-01-29T10:41:46.880Z,41.92
2023-01-29T10:44:32.161Z,42.04
2023-01-29T10:47:01.701Z,42.34
2023-01-29T10:50:10.049Z,42.05
2023-01-29T10:52:49.914Z,41.84
2023-01-29T10:55:27.713Z,41.65
2023-01-29T10:58:14.159Z,41.35
2023-01-29T11:00:42.491Z,41.70
2023-01-29T11:03:27.907Z,41.91
2023-01-29T11:06:29.734Z,42.47
2023-01-29T11:09:08.509Z,41.98
2023-01-29T11:12:07.696Z,41.59
2023-01-29T11:14:49.368Z,41.87
2023-01-29T11:17:17.507Z,42.44
2023-01-29T11:19:45.326Z,41.74
2023-01-29T11:22:22.160Z,41.34
2023-01-29T11:25:18.851Z,41.72
2023-01-29T11:27:52.641Z,41.59
2023-01-29T11:30:23.781Z,42.89
2023-01-29T11:32:52.730Z,42.03
2023-01-29T11:35:24.287Z,40.81
2023-01-29T11:37:50.885Z,40.72
2023-01-29T11:40:20.330Z,40.66
2023-01-29T11:42:47.203Z,40.77
2023-01-29T11:45:22.874Z,40.57
2023-01-29T11:47:50.422Z,41.16
2023-01-29T11:50:22.501Z,40.24
2023-01-29T11:52:49.120Z,39.44
2023-01-29T11:55:21.094Z,39.43
2023-01-29T11:57:52.740Z,39.25
2023-01-29T12:00:33.364Z,40.33
2023-01-29T12:03:13.597Z,39.43
2023-01-29T12:05:42.297Z,39.39
2023-01-29T12:08:17.029Z,39.28
2023-01-29T12:10:43.756Z,39.51
2023-01-29T12:13:10.309Z,39.31
2023-01-29T12:15:40.593Z,39.49
2023-01-29T12:18:38.113Z,39.26
2023-01-29T12:21:06.006Z,39.01
2023-01-29T12:23:46.124Z,39.31
2023-01-29T12:26:24.504Z,38.85
2023-01-29T12:29:07.800Z,39.04
2023-01-29T12:31:49.479Z,39.24
2023-01-29T12:34:24.867Z,39.13
2023-01-29T12:36:55.417Z,38.91
2023-01-29T12:39:22.068Z,37.91
2023-01-29T12:42:00.448Z,37.31
2023-01-29T12:45:03.243Z,37.36
2023-01-29T12:47:41.522Z,37.38
2023-01-29T12:50:44.013Z,37.33
2023-01-29T12:53:28.827Z,36.86
2023-01-29T12:55:59.223Z,37.35
2023-01-29T12:58:35.947Z,37.02
2023-01-29T13:01:12.336Z,36.95
2023-01-29T13:03:53.087Z,37.16
2023-01-29T13:06:22.629Z,37.25
2023-01-29T13:08:50.648Z,37.01
2023-01-29T13:11:34.174Z,37.80
2023-01-29T13:14:03.305Z,37.15
2023-01-29T13:16:37.587Z,38.14
2023-01-29T13:19:28.634Z,38.20
2023-01-29T13:21:56.816Z,38.19
2023-01-29T13:24:24.303Z,37.97
2023-01-29T13:26:52.519Z,38.35
2023-01-29T13:29:29.107Z,38.20
2023-01-29T13:31:56.774Z,38.21
2023-01-29T13:34:34.661Z,38.17
2023-01-29T13:37:03.082Z,37.66
2023-01-29T13:39:34.156Z,38.11
2023-01-29T13:42:01.240Z,37.64
2023-01-29T13:44:36.057Z,37.71
2023-01-29T13:47:07.859Z,37.39
2023-01-29T13:49:52.713Z,37.74
2023-01-29T13:52:54.687Z,37.06
2023-01-29T13:55:24.125Z,37.83
2023-01-29T13:57:56.181Z,37.35
2023-01-29T14:00:22.880Z,37.83
2023-01-29T14:02:55.316Z,37.76
2023-01-29T14:05:30.961Z,38.24
2023-01-29T14:08:01.319Z,38.18
2023-01-29T14:10:32.233Z,38.19
2023-01-29T14:13:04.832Z,38.35
2023-01-29T14:15:35.256Z,38.65
2023-01-29T14:18:04.962Z,38.72
2023-01-29T14:20:51.380Z,38.63
2023-01-29T14:23:29.808Z,38.90
2023-01-29T14:25:58.653Z,39.46
2023-01-29T14:28:28.730Z,39.17
2023-01-29T14:30:55.561Z,39.93
2023-01-29T14:33:31.165Z,49.60
2023-01-29T14:35:57.878Z,40.10
2023-01-29T14:38:26.412Z,39.63
2023-01-29T14:41:02.403Z,38.81
2023-01-29T14:43:29.027Z,38.99
2023-01-29T14:45:55.700Z,38.89
2023-01-29T14:48:51.743Z,39.54
2023-01-29T14:51:18.405Z,40.01
2023-01-29T14:54:06.461Z,39.70
2023-01-29T14:56:53.703Z,39.55
2023-01-29T14:59:29.559Z,39.02
2023-01-29T15:01:56.691Z,40.25
2023-01-29T15:04:27.855Z,39.98
2023-01-29T15:07:09.744Z,40.78
2023-01-29T15:09:57.250Z,41.33
2023-01-29T15:12:31.475Z,40.49
2023-01-29T15:15:24.175Z,41.24
2023-01-29T15:18:05.889Z,40.90
2023-01-29T15:20:34.332Z,40.91
2023-01-29T15:23:01.624Z,41.35
2023-01-29T15:25:28.289Z,41.10
2023-01-29T15:27:54.988Z,40.85
2023-01-29T15:30:28.201Z,40.19
2023-01-29T15:32:55.004Z,39.92
2023-01-29T15:35:34.689Z,40.67
2023-01-29T15:38:05.319Z,40.50
2023-01-29T15:40:31.963Z,40.84
2023-01-29T15:42:58.615Z,40.64
2023-01-29T15:45:32.158Z,40.09
2023-01-29T15:48:01.830Z,40.40
2023-01-29T15:50:29.044Z,40.75
2023-01-29T15:52:55.720Z,40.52
2023-01-29T15:55:22.827Z,40.37
2023-01-29T15:57:49.455Z,40.13
2023-01-29T16:00:25.337Z,40.82
2023-01-29T16:02:52.174Z,40.91
2023-01-29T16:05:29.560Z,41.34
2023-01-29T16:07:56.361Z,41.38
2023-01-29T16:10:24.778Z,41.49
2023-01-29T16:12:51.525Z,41.88
2023-01-29T16:15:29.132Z,41.98
2023-01-29T16:17:55.952Z,41.58
2023-01-29T16:20:40.106Z,41.26
2023-01-29T16:23:06.803Z,41.15
2023-01-29T16:25:33.979Z,42.22
2023-01-29T16:28:03.567Z,42.72
2023-01-29T16:30:30.201Z,42.81
2023-01-29T16:33:03.997Z,42.63
2023-01-29T16:35:30.651Z,43.33
2023-01-29T16:38:03.244Z,42.91
2023-01-29T16:40:31.843Z,42.69
2023-01-29T16:43:17.192Z,42.71
2023-01-29T16:45:43.936Z,43.20
2023-01-29T16:48:26.396Z,43.50
2023-01-29T16:51:03.205Z,44.48
2023-01-29T16:53:29.931Z,44.30
2023-01-29T16:55:56.610Z,45.12
2023-01-29T16:58:25.277Z,45.03
2023-01-29T17:01:10.823Z,44.79
2023-01-29T17:03:37.772Z,45.08
2023-01-29T17:06:19.054Z,45.52
2023-01-29T17:08:45.726Z,45.67
2023-01-29T17:11:13.676Z,46.06
2023-01-29T17:13:43.901Z,47.14
2023-01-29T17:16:28.262Z,46.93
2023-01-29T17:18:54.959Z,47.13
2023-01-29T17:21:21.623Z,47.39
2023-01-29T17:23:48.273Z,48.01
2023-01-29T17:26:15.063Z,47.68
2023-01-29T17:28:41.721Z,48.01
2023-01-29T17:31:08.493Z,47.79
2023-01-29T17:33:35.911Z,47.72
2023-01-29T17:36:02.641Z,47.65
2023-01-29T17:38:29.322Z,47.35
2023-01-29T17:41:05.621Z,46.75
2023-01-29T17:43:32.249Z,48.07
2023-01-29T17:45:58.989Z,47.96
2023-01-29T17:48:29.143Z,48.55
2023-01-29T17:50:58.871Z,48.34
2023-01-29T17:53:30.580Z,48.28
2023-01-29T17:56:03.100Z,48.61
2023-01-29T17:58:29.885Z,48.53
2023-01-29T18:00:56.559Z,49.05
2023-01-29T18:03:23.285Z,49.42
2023-01-29T18:05:50.153Z,49.80
2023-01-29T18:08:29.419Z,49.93
2023-01-29T18:10:56.097Z,49.85
2023-01-29T18:13:22.935Z,50.57
2023-01-29T18:15:50.105Z,51.45
2023-01-29T18:18:19.377Z,51.20
2023-01-29T18:20:46.115Z,50.95
2023-01-29T18:23:13.188Z,50.49
2023-01-29T18:25:39.957Z,51.59
2023-01-29T18:28:06.840Z,50.84
2023-01-29T18:30:33.745Z,51.30
2023-01-29T18:33:00.450Z,51.42
2023-01-29T18:35:27.683Z,51.06
2023-01-29T18:37:54.696Z,51.34
2023-01-29T18:40:21.388Z,51.67
2023-01-29T18:42:48.118Z,52.32
2023-01-29T18:45:15.250Z,52.14
2023-01-29T18:47:42.253Z,52.04
2023-01-29T18:50:10.469Z,52.63
2023-01-29T18:52:37.205Z,52.50
2023-01-29T18:55:07.196Z,51.88
2023-01-29T18:58:28.997Z,52.43
2023-01-29T19:00:23.456Z,52.56
2023-01-29T19:02:50.155Z,52.84
2023-01-29T19:05:17.342Z,52.66
2023-01-29T19:07:44.268Z,52.80
2023-01-29T19:10:13.531Z,52.08
2023-01-29T19:12:40.244Z,51.48
2023-01-29T19:15:08.007Z,52.89
2023-01-29T19:17:34.633Z,52.16
2023-01-29T19:20:01.273Z,52.76
2023-01-29T19:22:28.905Z,53.03
2023-01-29T19:24:55.603Z,51.96
2023-01-29T19:27:22.689Z,52.70
2023-01-29T19:29:49.350Z,52.83
2023-01-29T19:32:16.075Z,52.58
2023-01-29T19:34:42.746Z,53.45
2023-01-29T19:37:09.552Z,53.25
2023-01-29T19:39:36.784Z,52.73
2023-01-29T19:42:03.639Z,52.67
2023-01-29T19:44:30.336Z,52.27
2023-01-29T19:46:57.019Z,51.78
2023-01-29T19:49:25.196Z,51.26
2023-01-29T19:51:51.932Z,51.67
2023-01-29T19:54:18.559Z,51.67
2023-01-29T19:56:45.211Z,51.48
2023-01-29T19:59:12.104Z,50.72
2023-01-29T20:01:38.789Z,51.23
2023-01-29T20:04:05.448Z,52.18
2023-01-29T20:06:32.187Z,51.81
2023-01-29T20:08:58.899Z,51.75
2023-01-29T20:11:25.582Z,51.74
2023-01-29T20:13:52.361Z,51.98
2023-01-29T20:16:19.244Z,51.98
2023-01-29T20:18:46.198Z,51.04
2023-01-29T20:21:14.485Z,51.62
2023-01-29T20:23:41.393Z,50.76
2023-01-29T20:26:09.732Z,50.90
2023-01-29T20:28:36.382Z,50.56
2023-01-29T20:31:03.694Z,50.90
2023-01-29T20:33:30.459Z,49.98
2023-01-29T20:35:58.219Z,51.14
2023-01-29T20:38:25.682Z,50.86
2023-01-29T20:40:52.327Z,50.72
2023-01-29T20:43:21.505Z,51.17
2023-01-29T20:45:48.346Z,50.96
2023-01-29T20:48:15.019Z,50.97
2023-01-29T20:50:44.591Z,50.68
2023-01-29T20:53:11.388Z,50.53
2023-01-29T20:55:38.203Z,51.01
2023-01-29T20:58:06.787Z,50.85
2023-01-29T21:00:33.658Z,50.72
2023-01-29T21:03:00.421Z,50.57
2023-01-29T21:05:27.109Z,51.02
2023-01-29T21:07:53.767Z,50.87
2023-01-29T21:10:20.379Z,50.84
2023-01-29T21:12:47.039Z,51.16
2023-01-29T21:15:13.715Z,50.72
2023-01-29T21:17:40.720Z,50.92
2023-01-29T21:20:08.082Z,51.21
2023-01-29T21:22:34.791Z,51.11
2023-01-29T21:25:01.447Z,51.23
2023-01-29T21:27:28.086Z,51.00
2023-01-29T21:29:54.811Z,51.63
2023-01-29T21:32:21.544Z,51.03
2023-01-29T21:34:48.220Z,52.02
2023-01-29T21:37:14.963Z,51.37
2023-01-29T21:39:41.634Z,52.41
2023-01-29T21:42:08.421Z,52.37
2023-01-29T21:44:36.032Z,52.65
2023-01-29T21:47:02.875Z,52.67
2023-01-29T21:49:29.584Z,52.68
2023-01-29T21:51:57.546Z,52.46
2023-01-29T21:54:24.280Z,52.10
2023-01-29T21:56:50.921Z,52.36
2023-01-29T21:59:17.524Z,52.10
2023-01-29T22:01:44.244Z,52.36
2023-01-29T22:04:10.954Z,51.51
2023-01-29T22:06:37.617Z,51.96
2023-01-29T22:09:07.435Z,51.52
2023-01-29T22:11:34.471Z,52.13
2023-01-29T22:14:01.176Z,52.56
2023-01-29T22:16:27.953Z,52.76
2023-01-29T22:18:54.739Z,52.25
2023-01-29T22:21:21.385Z,52.38
2023-01-29T22:23:48.639Z,53.11
2023-01-29T22:26:15.556Z,53.03
2023-01-29T22:28:42.606Z,53.08
2023-01-29T22:31:09.235Z,54.06
2023-01-29T22:33:35.885Z,53.70
2023-01-29T22:36:02.528Z,53.07
2023-01-29T22:38:29.353Z,51.94
2023-01-29T22:40:56.624Z,51.72
2023-01-29T22:43:23.421Z,51.20
2023-01-29T22:45:50.106Z,51.95
2023-01-29T22:48:16.739Z,51.59
2023-01-29T22:50:43.410Z,52.44
2023-01-29T22:53:10.081Z,52.15
2023-01-29T22:55:36.762Z,52.65
2023-01-29T22:58:03.376Z,52.71
2023-01-29T23:00:30.065Z,52.57
2023-01-29T23:02:56.710Z,52.25
2023-01-29T23:05:24.545Z,52.76
2023-01-29T23:07:51.223Z,53.09
2023-01-29T23:10:18.225Z,52.64
2023-01-29T23:12:45.039Z,52.50
2023-01-29T23:15:11.675Z,52.21
2023-01-29T23:17:38.374Z,52.14
2023-01-29T23:20:05.507Z,52.24
2023-01-29T23:22:32.140Z,52.30
2023-01-29T23:24:58.891Z,51.73
2023-01-29T23:27:25.582Z,51.07
2023-01-29T23:29:52.247Z,51.03
2023-01-29T23:32:19.672Z,51.59
2023-01-29T23:34:46.294Z,52.73
2023-01-29T23:37:12.915Z,51.85
2023-01-29T23:39:39.518Z,52.87
2023-01-29T23:42:06.169Z,49.57
2023-01-29T23:44:32.833Z,52.12
2023-01-29T23:46:59.523Z,49.14
2023-01-29T23:49:26.141Z,51.30
2023-01-29T23:51:52.753Z,50.14
2023-01-29T23:54:19.836Z,50.37
2023-01-29T23:56:46.558Z,50.05
2023-01-29T23:59:13.222Z,47.60
